Jixi, China
Current Conditions -  °F | °C
As of 10:00 PM on Wednesday 28 Jan 2015 (Local Time) from UHWW Reporting Station
Clear Clear  
Wind Chill: -2°   Ceiling: Unl
Heat Index:   Visibility: 6mi
Dew Point: -11°   Wind: 7mph
Humidity: 40%   Direction: 360°N
Pressure: 30.39"   Gusts: NA
Location:  45.3°N, 130.97°E
Report Text: UHWW 281400Z 36003MPS 9999 SKC M13/M24 Q1029 NOSIG RMKQFE771/1028 25CLRD60
Loading
Personal Weather Stations






























Interactive Weather Map New forecast layout! Learn more

10-Day Weather Forecast

Advertisements
Track Severe Weather on mobile